Terminal Aerodrome Forecast
Issued by NWS

Home | Current Version | Previous Version | Text Only | Print | Product List | Glossary On
Versions: 1 2 3 4 5 6 7 8 9 10 11 12 13 14 15 16
000
FTUS42 KGSP 240214 AAB
TAFGMU
TAF AMD
KGMU 240214Z 2402/2424 17004KT 6SM BR FEW005 SCT015 BKN100
      TEMPO 2403/2405 BKN007 OVC015
     FM240500 20010KT 6SM BR OVC003
     FM241600 21013G21KT P6SM BKN070
     FM242200 23009KT P6SM SCT250=

USA.gov is the U.S. government's official web portal to all federal, state and local government web resources and services.